createdAt,value
2018-01-30T00:00:18.038Z,1021.54
2018-01-30T00:01:18.054Z,1021.57
2018-01-30T00:02:18.071Z,1021.62
2018-01-30T00:03:18.088Z,1021.66
2018-01-30T00:04:18.105Z,1021.65
2018-01-30T00:05:18.121Z,1021.68
2018-01-30T00:06:18.138Z,1021.68
2018-01-30T00:07:18.155Z,1021.69
2018-01-30T00:08:18.172Z,1021.72
2018-01-30T00:09:18.188Z,1021.74
2018-01-30T00:10:18.206Z,1021.75
2018-01-30T00:11:18.223Z,1021.81
2018-01-30T00:12:18.239Z,1021.80
2018-01-30T00:13:18.255Z,1021.84
2018-01-30T00:14:18.273Z,1021.86
2018-01-30T00:15:18.290Z,1021.85
2018-01-30T00:16:18.307Z,1021.89
2018-01-30T00:17:18.323Z,1021.87
2018-01-30T00:18:18.340Z,1021.91
2018-01-30T00:19:18.357Z,1021.92
2018-01-30T00:20:18.375Z,1021.95
2018-01-30T00:21:18.390Z,1021.96
2018-01-30T00:22:18.559Z,1021.94
2018-01-30T00:23:18.425Z,1021.91
2018-01-30T00:24:18.442Z,1021.88
2018-01-30T00:25:18.460Z,1021.89
2018-01-30T00:26:18.480Z,1021.88
2018-01-30T00:27:18.492Z,1021.91
2018-01-30T00:28:18.510Z,1021.97
2018-01-30T00:29:18.526Z,1021.98
2018-01-30T00:30:18.542Z,1022.02
2018-01-30T00:31:18.563Z,1022.03
2018-01-30T00:32:18.577Z,1022.08
2018-01-30T00:33:18.594Z,1022.05
2018-01-30T00:34:18.616Z,1022.07
2018-01-30T00:35:18.628Z,1022.15
2018-01-30T00:36:18.645Z,1022.06
2018-01-30T00:37:18.662Z,1022.07
2018-01-30T00:38:18.679Z,1022.15
2018-01-30T00:39:18.696Z,1022.15
2018-01-30T00:40:18.713Z,1022.20
2018-01-30T00:41:18.729Z,1022.20
2018-01-30T00:42:18.746Z,1022.17
2018-01-30T00:43:18.763Z,1022.21
2018-01-30T00:44:18.781Z,1022.21
2018-01-30T00:45:18.796Z,1022.25
2018-01-30T00:46:18.964Z,1022.20
2018-01-30T00:47:18.830Z,1022.19
2018-01-30T00:48:18.847Z,1022.28
2018-01-30T00:49:18.864Z,1022.26
2018-01-30T00:50:18.881Z,1022.21
2018-01-30T00:51:18.899Z,1022.23
2018-01-30T00:52:18.915Z,1022.21
2018-01-30T00:53:18.932Z,1022.19
2018-01-30T00:54:18.949Z,1022.14
2018-01-30T00:55:18.966Z,1022.15
2018-01-30T00:56:18.983Z,1022.12
2018-01-30T00:57:18.999Z,1022.14
2018-01-30T00:58:19.016Z,1022.20
2018-01-30T00:59:19.033Z,1022.20
2018-01-30T01:00:19.050Z,1022.17
2018-01-30T01:01:19.068Z,1022.11
2018-01-30T01:02:19.084Z,1022.12
2018-01-30T01:03:19.102Z,1022.11
2018-01-30T01:04:19.117Z,1022.17
2018-01-30T01:05:19.133Z,1022.14
2018-01-30T01:06:19.149Z,1022.18
2018-01-30T01:07:19.171Z,1022.17
2018-01-30T01:08:19.183Z,1022.17
2018-01-30T01:09:19.200Z,1022.18
2018-01-30T01:10:19.217Z,1022.17
2018-01-30T01:11:19.235Z,1022.21
2018-01-30T01:12:19.265Z,1022.20
2018-01-30T01:13:19.266Z,1022.18
2018-01-30T01:14:19.283Z,1022.19
2018-01-30T01:15:19.300Z,1022.21
2018-01-30T01:16:19.317Z,1022.18
2018-01-30T01:17:19.333Z,1022.20
2018-01-30T01:18:19.349Z,1022.15
2018-01-30T01:19:19.366Z,1022.24
2018-01-30T01:20:19.383Z,1022.15
2018-01-30T01:21:19.398Z,1022.24
2018-01-30T01:22:19.415Z,1022.24
2018-01-30T01:23:19.432Z,1022.29
2018-01-30T01:24:19.449Z,1022.29
2018-01-30T01:25:19.465Z,1022.32
2018-01-30T01:26:19.482Z,1022.34
2018-01-30T01:27:19.499Z,1022.31
2018-01-30T01:28:19.516Z,1022.29
2018-01-30T01:29:19.531Z,1022.30
2018-01-30T01:30:19.548Z,1022.35
2018-01-30T01:31:19.565Z,1022.35
2018-01-30T01:32:19.582Z,1022.33
2018-01-30T01:33:19.598Z,1022.33
2018-01-30T01:34:19.617Z,1022.31
2018-01-30T01:35:19.631Z,1022.35
2018-01-30T01:36:19.648Z,1022.37
2018-01-30T01:37:19.664Z,1022.37
2018-01-30T01:38:19.687Z,1022.37
2018-01-30T01:39:19.697Z,1022.38
2018-01-30T01:40:19.714Z,1022.31
2018-01-30T01:41:19.734Z,1022.28
2018-01-30T01:42:19.747Z,1022.30
2018-01-30T01:43:19.764Z,1022.30
2018-01-30T01:44:19.781Z,1022.27
2018-01-30T01:45:19.796Z,1022.25
2018-01-30T01:46:19.813Z,1022.30
2018-01-30T01:47:19.831Z,1022.31
2018-01-30T01:48:19.846Z,1022.28
2018-01-30T01:49:19.862Z,1022.30
2018-01-30T01:50:19.878Z,1022.29
2018-01-30T01:51:19.896Z,1022.34
2018-01-30T01:52:19.912Z,1022.32
2018-01-30T01:53:19.928Z,1022.29
2018-01-30T01:54:19.945Z,1022.29
2018-01-30T01:55:19.962Z,1022.31
2018-01-30T01:56:19.979Z,1022.32
2018-01-30T01:57:19.994Z,1022.28
2018-01-30T01:58:20.011Z,1022.25
2018-01-30T01:59:20.028Z,1022.26
2018-01-30T02:00:20.045Z,1022.27
2018-01-30T02:01:20.060Z,1022.18
2018-01-30T02:02:20.077Z,1022.21
2018-01-30T02:03:20.093Z,1022.18
2018-01-30T02:04:20.110Z,1022.13
2018-01-30T02:05:20.126Z,1022.17
2018-01-30T02:06:20.142Z,1022.13
2018-01-30T02:07:20.159Z,1022.16
2018-01-30T02:08:20.176Z,1022.14
2018-01-30T02:09:20.192Z,1022.18
2018-01-30T02:10:20.209Z,1022.17
2018-01-30T02:11:20.225Z,1022.16
2018-01-30T02:12:20.241Z,1022.12
2018-01-30T02:13:20.257Z,1022.11
2018-01-30T02:14:20.275Z,1022.06
2018-01-30T02:15:20.291Z,1022.07
2018-01-30T02:16:20.307Z,1022.06
2018-01-30T02:17:20.324Z,1022.13
2018-01-30T02:18:20.340Z,1022.13
2018-01-30T02:19:20.457Z,1022.18
2018-01-30T02:20:20.377Z,1022.19
2018-01-30T02:21:20.389Z,1022.20
2018-01-30T02:22:20.406Z,1022.17
2018-01-30T02:23:20.422Z,1022.18
2018-01-30T02:24:20.439Z,1022.17
2018-01-30T02:25:20.455Z,1022.16
2018-01-30T02:26:20.471Z,1022.12
2018-01-30T02:27:20.488Z,1022.13
2018-01-30T02:28:20.505Z,1022.11
2018-01-30T02:29:20.521Z,1022.14
2018-01-30T02:30:20.537Z,1022.08
2018-01-30T02:31:20.554Z,1022.06
2018-01-30T02:32:20.572Z,1022.02
2018-01-30T02:33:20.586Z,1021.96
2018-01-30T02:34:20.602Z,1021.97
2018-01-30T02:35:20.619Z,1022.02
2018-01-30T02:36:20.636Z,1021.96
2018-01-30T02:37:20.651Z,1021.97
2018-01-30T02:38:20.667Z,1022.00
2018-01-30T02:39:20.684Z,1021.99
2018-01-30T02:40:20.701Z,1022.03
2018-01-30T02:41:20.716Z,1022.04
2018-01-30T02:42:20.733Z,1022.00
2018-01-30T02:43:20.749Z,1022.04
2018-01-30T02:44:20.766Z,1022.04
2018-01-30T02:45:20.781Z,1022.03
2018-01-30T02:46:20.798Z,1022.06
2018-01-30T02:47:20.813Z,1022.08
2018-01-30T02:48:20.829Z,1022.04
2018-01-30T02:49:20.846Z,1022.07
2018-01-30T02:50:20.867Z,1022.07
2018-01-30T02:51:20.879Z,1022.08
2018-01-30T02:52:20.894Z,1022.13
2018-01-30T02:53:20.910Z,1022.16
2018-01-30T02:54:21.080Z,1022.18
2018-01-30T02:55:20.943Z,1022.19
2018-01-30T02:56:20.959Z,1022.21
2018-01-30T02:57:20.975Z,1022.22
2018-01-30T02:58:20.991Z,1022.22
2018-01-30T02:59:21.025Z,1022.20
2018-01-30T03:00:21.024Z,1022.20
2018-01-30T03:01:21.039Z,1022.18
2018-01-30T03:02:21.055Z,1022.20
2018-01-30T03:03:21.072Z,1022.22
2018-01-30T03:04:21.239Z,1022.24
2018-01-30T03:05:21.109Z,1022.27
2018-01-30T03:06:21.119Z,1022.26
2018-01-30T03:07:21.135Z,1022.26
2018-01-30T03:08:21.152Z,1022.28
2018-01-30T03:09:21.172Z,1022.28
2018-01-30T03:10:21.183Z,1022.27
2018-01-30T03:11:21.201Z,1022.22
2018-01-30T03:12:21.216Z,1022.26
2018-01-30T03:13:21.231Z,1022.28
2018-01-30T03:14:21.398Z,1022.27
2018-01-30T03:15:21.264Z,1022.30
2018-01-30T03:16:21.280Z,1022.32
2018-01-30T03:17:21.296Z,1022.37
2018-01-30T03:18:21.311Z,1022.36
2018-01-30T03:19:21.329Z,1022.38
2018-01-30T03:20:21.344Z,1022.37
2018-01-30T03:21:21.359Z,1022.39
2018-01-30T03:22:21.413Z,1022.41
2018-01-30T03:23:21.392Z,1022.36
2018-01-30T03:24:21.408Z,1022.31
2018-01-30T03:25:21.423Z,1022.33
2018-01-30T03:26:21.439Z,1022.33
2018-01-30T03:27:21.457Z,1022.34
2018-01-30T03:28:21.472Z,1022.36
2018-01-30T03:29:21.487Z,1022.35
2018-01-30T03:30:21.504Z,1022.36
2018-01-30T03:31:21.520Z,1022.37
2018-01-30T03:32:21.535Z,1022.37
2018-01-30T03:33:21.556Z,1022.39
2018-01-30T03:34:21.570Z,1022.36
2018-01-30T03:35:21.585Z,1022.36
2018-01-30T03:36:21.599Z,1022.36
2018-01-30T03:37:21.614Z,1022.34
2018-01-30T03:38:21.631Z,1022.37
2018-01-30T03:39:21.647Z,1022.36
2018-01-30T03:40:21.663Z,1022.37
2018-01-30T03:41:21.679Z,1022.37
2018-01-30T03:42:21.694Z,1022.35
2018-01-30T03:43:21.710Z,1022.38
2018-01-30T03:44:21.728Z,1022.35
2018-01-30T03:45:21.742Z,1022.37
2018-01-30T03:46:21.757Z,1022.33
2018-01-30T03:47:21.773Z,1022.33
2018-01-30T03:48:21.790Z,1022.33
2018-01-30T03:49:21.803Z,1022.32
2018-01-30T03:50:21.820Z,1022.30
2018-01-30T03:51:21.837Z,1022.29
2018-01-30T03:52:21.853Z,1022.31
2018-01-30T03:53:21.868Z,1022.26
2018-01-30T03:54:21.883Z,1022.33
2018-01-30T03:55:21.899Z,1022.30
2018-01-30T03:56:21.915Z,1022.29
2018-01-30T03:57:21.931Z,1022.30
2018-01-30T03:58:21.947Z,1022.32
2018-01-30T03:59:21.962Z,1022.36
2018-01-30T04:00:21.979Z,1022.33
2018-01-30T04:01:21.994Z,1022.41
2018-01-30T04:02:22.010Z,1022.39
2018-01-30T04:03:22.027Z,1022.41
2018-01-30T04:04:22.043Z,1022.42
2018-01-30T04:05:22.088Z,1022.39
2018-01-30T04:06:22.073Z,1022.41
2018-01-30T04:07:22.089Z,1022.42
2018-01-30T04:08:22.106Z,1022.45
2018-01-30T04:09:22.119Z,1022.45
2018-01-30T04:10:22.136Z,1022.42
2018-01-30T04:11:22.151Z,1022.47
2018-01-30T04:12:22.168Z,1022.46
2018-01-30T04:13:22.183Z,1022.43
2018-01-30T04:14:22.199Z,1022.44
2018-01-30T04:15:22.215Z,1022.46
2018-01-30T04:16:22.231Z,1022.48
2018-01-30T04:17:22.250Z,1022.48
2018-01-30T04:18:22.262Z,1022.49
2018-01-30T04:19:22.277Z,1022.56
2018-01-30T04:20:22.294Z,1022.59
2018-01-30T04:21:22.311Z,1022.61
2018-01-30T04:22:22.324Z,1022.57
2018-01-30T04:23:22.491Z,1022.59
2018-01-30T04:24:22.356Z,1022.50
2018-01-30T04:25:22.372Z,1022.53
2018-01-30T04:26:22.387Z,1022.45
2018-01-30T04:27:22.404Z,1022.47
2018-01-30T04:28:22.420Z,1022.42
2018-01-30T04:29:22.434Z,1022.42
2018-01-30T04:30:22.451Z,1022.39
2018-01-30T04:31:22.467Z,1022.42
2018-01-30T04:32:22.482Z,1022.47
2018-01-30T04:33:22.498Z,1022.42
2018-01-30T04:34:22.513Z,1022.40
2018-01-30T04:35:22.528Z,1022.42
2018-01-30T04:36:22.545Z,1022.47
2018-01-30T04:37:22.560Z,1022.41
2018-01-30T04:38:22.576Z,1022.42
2018-01-30T04:39:22.592Z,1022.41
2018-01-30T04:40:22.608Z,1022.39
2018-01-30T04:41:22.622Z,1022.35
2018-01-30T04:42:22.638Z,1022.39
2018-01-30T04:43:22.654Z,1022.34
2018-01-30T04:44:22.670Z,1022.37
2018-01-30T04:45:22.688Z,1022.36
2018-01-30T04:46:22.701Z,1022.34
2018-01-30T04:47:22.717Z,1022.38
2018-01-30T04:48:22.732Z,1022.39
2018-01-30T04:49:22.748Z,1022.44
2018-01-30T04:50:22.764Z,1022.42
2018-01-30T04:51:22.779Z,1022.37
2018-01-30T04:52:22.795Z,1022.41
2018-01-30T04:53:22.810Z,1022.42
2018-01-30T04:54:22.826Z,1022.39
2018-01-30T04:55:22.842Z,1022.45
2018-01-30T04:56:22.857Z,1022.51
2018-01-30T04:57:22.872Z,1022.51
2018-01-30T04:58:22.889Z,1022.46
2018-01-30T04:59:22.904Z,1022.43
2018-01-30T05:00:22.920Z,1022.47
2018-01-30T05:01:22.936Z,1022.45
2018-01-30T05:02:22.952Z,1022.43
2018-01-30T05:03:22.967Z,1022.43
2018-01-30T05:04:22.982Z,1022.44
2018-01-30T05:05:22.999Z,1022.43
2018-01-30T05:06:23.064Z,1022.41
2018-01-30T05:07:23.029Z,1022.37
2018-01-30T05:08:23.045Z,1022.38
2018-01-30T05:09:23.060Z,1022.34
2018-01-30T05:10:23.076Z,1022.35
2018-01-30T05:11:23.092Z,1022.41
2018-01-30T05:12:23.108Z,1022.40
2018-01-30T05:13:23.123Z,1022.36
2018-01-30T05:14:23.139Z,1022.37
2018-01-30T05:15:23.154Z,1022.44
2018-01-30T05:16:23.171Z,1022.47
2018-01-30T05:17:23.187Z,1022.50
2018-01-30T05:18:23.201Z,1022.50
2018-01-30T05:19:23.218Z,1022.54
2018-01-30T05:20:23.246Z,1022.58
2018-01-30T05:21:23.248Z,1022.57
2018-01-30T05:22:23.264Z,1022.51
2018-01-30T05:23:23.280Z,1022.52
2018-01-30T05:24:23.296Z,1022.50
2018-01-30T05:25:23.311Z,1022.55
2018-01-30T05:26:23.326Z,1022.58
2018-01-30T05:27:23.342Z,1022.58
2018-01-30T05:28:23.359Z,1022.60
2018-01-30T05:29:23.372Z,1022.64
2018-01-30T05:30:23.389Z,1022.59
2018-01-30T05:31:23.406Z,1022.64
2018-01-30T05:32:23.421Z,1022.61
2018-01-30T05:33:23.437Z,1022.60
2018-01-30T05:34:23.452Z,1022.53
2018-01-30T05:35:23.469Z,1022.58
2018-01-30T05:36:23.484Z,1022.51
2018-01-30T05:37:23.500Z,1022.53
2018-01-30T05:38:23.515Z,1022.58
2018-01-30T05:39:23.531Z,1022.60
2018-01-30T05:40:23.547Z,1022.66
2018-01-30T05:41:23.562Z,1022.60
2018-01-30T05:42:23.584Z,1022.65
2018-01-30T05:43:23.594Z,1022.71
2018-01-30T05:44:23.613Z,1022.70
2018-01-30T05:45:23.625Z,1022.76
2018-01-30T05:46:23.675Z,1022.74
2018-01-30T05:47:23.658Z,1022.78
2018-01-30T05:48:23.673Z,1022.73
2018-01-30T05:49:23.689Z,1022.74
2018-01-30T05:50:23.705Z,1022.67
2018-01-30T05:51:23.722Z,1022.75
2018-01-30T05:52:23.736Z,1022.73
2018-01-30T05:53:23.755Z,1022.69
2018-01-30T05:54:23.768Z,1022.65
2018-01-30T05:55:23.784Z,1022.68
2018-01-30T05:56:23.800Z,1022.67
2018-01-30T05:57:23.815Z,1022.68
2018-01-30T05:58:23.829Z,1022.71
2018-01-30T05:59:23.847Z,1022.75
2018-01-30T06:00:23.863Z,1022.70
2018-01-30T06:01:23.879Z,1022.74
2018-01-30T06:02:23.894Z,1022.69
2018-01-30T06:03:23.911Z,1022.66
2018-01-30T06:04:23.926Z,1022.76
2018-01-30T06:05:23.941Z,1022.73
2018-01-30T06:06:23.957Z,1022.75
2018-01-30T06:07:23.973Z,1022.72
2018-01-30T06:08:23.989Z,1022.78
2018-01-30T06:09:24.004Z,1022.76
2018-01-30T06:10:24.020Z,1022.77
2018-01-30T06:11:24.035Z,1022.71
2018-01-30T06:12:24.051Z,1022.71
2018-01-30T06:13:24.067Z,1022.69
2018-01-30T06:14:24.083Z,1022.66
2018-01-30T06:15:24.099Z,1022.67
2018-01-30T06:16:24.115Z,1022.70
2018-01-30T06:17:24.129Z,1022.66
2018-01-30T06:18:24.145Z,1022.71
2018-01-30T06:19:24.161Z,1022.73
2018-01-30T06:20:24.177Z,1022.79
2018-01-30T06:21:24.192Z,1022.77
2018-01-30T06:22:24.208Z,1022.80
2018-01-30T06:23:24.224Z,1022.81
2018-01-30T06:24:24.239Z,1022.78
2018-01-30T06:25:24.255Z,1022.79
2018-01-30T06:26:24.271Z,1022.72
2018-01-30T06:27:24.287Z,1022.75
2018-01-30T06:28:24.348Z,1022.74
2018-01-30T06:29:24.317Z,1022.80
2018-01-30T06:30:24.384Z,1022.84
2018-01-30T06:31:24.349Z,1022.81
2018-01-30T06:32:24.366Z,1022.81
2018-01-30T06:33:24.385Z,1022.71
2018-01-30T06:34:24.396Z,1022.72
2018-01-30T06:35:24.412Z,1022.69
2018-01-30T06:36:24.427Z,1022.72
2018-01-30T06:37:24.443Z,1022.82
2018-01-30T06:38:24.457Z,1022.88
2018-01-30T06:39:24.475Z,1022.85
2018-01-30T06:40:24.489Z,1022.81
2018-01-30T06:41:24.505Z,1022.74
2018-01-30T06:42:24.557Z,1022.67
2018-01-30T06:43:24.537Z,1022.69
2018-01-30T06:44:24.553Z,1022.64
2018-01-30T06:45:24.580Z,1022.67
2018-01-30T06:46:24.583Z,1022.67
2018-01-30T06:47:24.601Z,1022.69
2018-01-30T06:48:24.616Z,1022.62
2018-01-30T06:49:24.630Z,1022.61
2018-01-30T06:50:24.645Z,1022.57
2018-01-30T06:51:24.661Z,1022.59
2018-01-30T06:52:24.677Z,1022.64
2018-01-30T06:53:24.693Z,1022.67
2018-01-30T06:54:24.707Z,1022.70
2018-01-30T06:55:24.724Z,1022.67
2018-01-30T06:56:24.739Z,1022.64
2018-01-30T06:57:24.754Z,1022.61
2018-01-30T06:58:24.769Z,1022.64
2018-01-30T06:59:24.936Z,1022.60
2018-01-30T07:00:24.802Z,1022.59
2018-01-30T07:01:24.817Z,1022.61
2018-01-30T07:02:24.832Z,1022.62
2018-01-30T07:03:24.854Z,1022.63
2018-01-30T07:04:24.864Z,1022.64
2018-01-30T07:05:24.879Z,1022.66
2018-01-30T07:06:24.941Z,1022.68
2018-01-30T07:07:24.911Z,1022.75
2018-01-30T07:08:24.928Z,1022.75
2018-01-30T07:09:24.941Z,1022.76
2018-01-30T07:10:24.957Z,1022.84
2018-01-30T07:11:24.972Z,1022.82
2018-01-30T07:12:24.990Z,1022.85
2018-01-30T07:13:25.007Z,1022.90
2018-01-30T07:14:25.019Z,1022.91
2018-01-30T07:15:25.036Z,1022.91
2018-01-30T07:16:25.051Z,1022.87
2018-01-30T07:17:25.067Z,1022.85
2018-01-30T07:18:25.082Z,1022.85
2018-01-30T07:19:25.102Z,1022.85
2018-01-30T07:20:25.115Z,1022.88
2018-01-30T07:21:25.129Z,1022.91
2018-01-30T07:22:25.145Z,1022.87
2018-01-30T07:23:25.160Z,1022.87
2018-01-30T07:24:25.176Z,1022.91
2018-01-30T07:25:25.192Z,1022.91
2018-01-30T07:26:25.207Z,1022.95
2018-01-30T07:27:25.224Z,1022.96
2018-01-30T07:28:25.239Z,1022.94
2018-01-30T07:29:25.256Z,1022.93
2018-01-30T07:30:25.270Z,1022.91
2018-01-30T07:31:25.286Z,1022.90
2018-01-30T07:32:25.301Z,1022.91
2018-01-30T07:33:25.317Z,1022.92
2018-01-30T07:34:25.332Z,1022.97
2018-01-30T07:35:25.348Z,1022.99
2018-01-30T07:36:25.370Z,1023.01
2018-01-30T07:37:25.379Z,1023.05
2018-01-30T07:38:25.396Z,1023.07
2018-01-30T07:39:25.411Z,1023.10
2018-01-30T07:40:25.426Z,1023.09
2018-01-30T07:41:25.442Z,1023.10
2018-01-30T07:42:25.457Z,1023.12
2018-01-30T07:43:25.484Z,1023.13
2018-01-30T07:44:25.495Z,1023.17
2018-01-30T07:45:25.504Z,1023.14
2018-01-30T07:46:25.520Z,1023.19
2018-01-30T07:47:25.537Z,1023.13
2018-01-30T07:48:25.552Z,1023.16
2018-01-30T07:49:25.567Z,1023.16
2018-01-30T07:50:25.683Z,1023.16
2018-01-30T07:51:25.599Z,1023.14
2018-01-30T07:52:25.615Z,1023.11
2018-01-30T07:53:25.629Z,1023.15
2018-01-30T07:54:25.646Z,1023.18
2018-01-30T07:55:25.663Z,1023.22
2018-01-30T07:56:25.678Z,1023.20
2018-01-30T07:57:25.692Z,1023.19
2018-01-30T07:58:25.709Z,1023.19
2018-01-30T07:59:25.725Z,1023.19
2018-01-30T08:00:25.740Z,1023.19
2018-01-30T08:01:25.755Z,1023.20
2018-01-30T08:02:25.772Z,1023.15
2018-01-30T08:03:25.788Z,1023.17
2018-01-30T08:04:25.804Z,1023.13
2018-01-30T08:05:25.819Z,1023.22
2018-01-30T08:06:25.835Z,1023.15
2018-01-30T08:07:25.851Z,1023.13
2018-01-30T08:08:25.867Z,1023.12
2018-01-30T08:09:25.882Z,1023.12
2018-01-30T08:10:25.899Z,1023.11
2018-01-30T08:11:25.915Z,1023.15
2018-01-30T08:12:25.931Z,1023.13
2018-01-30T08:13:25.946Z,1023.15
2018-01-30T08:14:25.962Z,1023.11
2018-01-30T08:15:25.978Z,1023.12
2018-01-30T08:16:25.994Z,1023.11
2018-01-30T08:17:26.010Z,1023.10
2018-01-30T08:18:26.026Z,1023.12
2018-01-30T08:19:26.192Z,1023.13
2018-01-30T08:20:26.059Z,1023.20
2018-01-30T08:21:26.074Z,1023.23
2018-01-30T08:22:26.090Z,1023.27
2018-01-30T08:23:26.107Z,1023.25
2018-01-30T08:24:26.123Z,1023.25
2018-01-30T08:25:26.138Z,1023.21
2018-01-30T08:26:26.156Z,1023.22
2018-01-30T08:27:26.171Z,1023.26
2018-01-30T08:28:26.202Z,1023.32
2018-01-30T08:29:26.202Z,1023.36
2018-01-30T08:30:26.220Z,1023.38
2018-01-30T08:31:26.235Z,1023.33
2018-01-30T08:32:26.251Z,1023.37
2018-01-30T08:33:26.268Z,1023.37
2018-01-30T08:34:26.283Z,1023.32
2018-01-30T08:35:26.300Z,1023.32
2018-01-30T08:36:26.315Z,1023.33
2018-01-30T08:37:26.338Z,1023.38
2018-01-30T08:38:26.348Z,1023.37
2018-01-30T08:39:26.365Z,1023.34
2018-01-30T08:40:26.412Z,1023.39
2018-01-30T08:41:26.396Z,1023.34
2018-01-30T08:42:26.413Z,1023.29
2018-01-30T08:43:26.429Z,1023.27
2018-01-30T08:44:26.445Z,1023.30
2018-01-30T08:45:26.461Z,1023.25
2018-01-30T08:46:26.480Z,1023.27
2018-01-30T08:47:26.566Z,1023.31
2018-01-30T08:48:26.512Z,1023.28
2018-01-30T08:49:26.527Z,1023.26
2018-01-30T08:50:26.544Z,1023.32
2018-01-30T08:51:26.565Z,1023.32
2018-01-30T08:52:26.577Z,1023.29
2018-01-30T08:53:26.593Z,1023.26
2018-01-30T08:54:26.610Z,1023.25
2018-01-30T08:55:26.626Z,1023.19
2018-01-30T08:56:26.647Z,1023.19
2018-01-30T08:57:26.671Z,1023.20
2018-01-30T08:58:26.676Z,1023.18
2018-01-30T08:59:26.693Z,1023.25
2018-01-30T09:00:26.709Z,1023.27
2018-01-30T09:01:26.725Z,1023.27
2018-01-30T09:02:26.752Z,1023.36
2018-01-30T09:03:26.764Z,1023.35
2018-01-30T09:04:26.787Z,1023.39
2018-01-30T09:05:26.796Z,1023.37
2018-01-30T09:06:26.822Z,1023.41
2018-01-30T09:07:26.825Z,1023.38
2018-01-30T09:08:26.841Z,1023.41
2018-01-30T09:09:26.869Z,1023.40
2018-01-30T09:10:26.875Z,1023.41
2018-01-30T09:11:26.891Z,1023.36
2018-01-30T09:12:26.909Z,1023.33
2018-01-30T09:13:26.952Z,1023.33
2018-01-30T09:14:26.940Z,1023.30
2018-01-30T09:15:26.973Z,1023.27
2018-01-30T09:16:26.974Z,1023.31
2018-01-30T09:17:26.990Z,1023.30
2018-01-30T09:18:27.007Z,1023.32
2018-01-30T09:19:27.024Z,1023.27
2018-01-30T09:20:27.042Z,1023.22
2018-01-30T09:21:27.065Z,1023.21
2018-01-30T09:22:27.073Z,1023.19
2018-01-30T09:23:27.090Z,1023.18
2018-01-30T09:24:27.108Z,1023.12
2018-01-30T09:25:27.123Z,1023.16
2018-01-30T09:26:27.139Z,1023.21
2018-01-30T09:27:27.156Z,1023.20
2018-01-30T09:28:27.180Z,1023.16
2018-01-30T09:29:27.189Z,1023.16
2018-01-30T09:30:27.206Z,1023.16
2018-01-30T09:31:27.222Z,1023.16
2018-01-30T09:32:27.241Z,1023.13
2018-01-30T09:33:27.292Z,1023.14
2018-01-30T09:34:27.273Z,1023.14
2018-01-30T09:35:27.289Z,1023.18
2018-01-30T09:36:27.305Z,1023.17
2018-01-30T09:37:27.321Z,1023.19
2018-01-30T09:38:27.339Z,1023.13
2018-01-30T09:39:27.355Z,1023.17
2018-01-30T09:40:27.372Z,1023.15
2018-01-30T09:41:27.388Z,1023.15
2018-01-30T09:42:27.405Z,1023.17
2018-01-30T09:43:27.457Z,1023.16
2018-01-30T09:44:27.455Z,1023.21
2018-01-30T09:45:27.455Z,1023.17
2018-01-30T09:46:27.472Z,1023.16
2018-01-30T09:47:27.489Z,1023.13
2018-01-30T09:48:27.506Z,1023.11
2018-01-30T09:49:27.544Z,1023.11
2018-01-30T09:50:27.562Z,1023.11
2018-01-30T09:51:27.555Z,1023.13
2018-01-30T09:52:27.578Z,1023.15
2018-01-30T09:53:27.589Z,1023.21
2018-01-30T09:54:27.606Z,1023.23
2018-01-30T09:55:27.623Z,1023.17
2018-01-30T09:56:27.642Z,1023.12
2018-01-30T09:57:27.656Z,1023.11
2018-01-30T09:58:27.673Z,1023.11
2018-01-30T09:59:27.693Z,1023.11
2018-01-30T10:00:27.709Z,1023.11
2018-01-30T10:01:27.734Z,1023.12
2018-01-30T10:02:27.941Z,1023.12
2018-01-30T10:03:27.793Z,1023.13
2018-01-30T10:04:27.776Z,1023.10
2018-01-30T10:05:27.792Z,1023.11
2018-01-30T10:06:27.809Z,1023.09
2018-01-30T10:07:27.826Z,1023.11
2018-01-30T10:08:27.845Z,1023.08
2018-01-30T10:09:27.860Z,1023.17
2018-01-30T10:10:27.877Z,1023.17
2018-01-30T10:11:27.894Z,1023.20
2018-01-30T10:12:27.912Z,1023.27
2018-01-30T10:13:27.928Z,1023.20
2018-01-30T10:14:27.945Z,1023.22
2018-01-30T10:15:27.963Z,1023.25
2018-01-30T10:16:27.980Z,1023.23
2018-01-30T10:17:27.996Z,1023.21
2018-01-30T10:18:28.013Z,1023.23
2018-01-30T10:19:28.036Z,1023.22
2018-01-30T10:20:28.055Z,1023.21
2018-01-30T10:21:28.079Z,1023.19
2018-01-30T10:22:28.083Z,1023.21
2018-01-30T10:23:28.100Z,1023.21
2018-01-30T10:24:28.118Z,1023.19
2018-01-30T10:25:28.134Z,1023.26
2018-01-30T10:26:28.152Z,1023.28
2018-01-30T10:27:28.170Z,1023.27
2018-01-30T10:28:28.187Z,1023.30
2018-01-30T10:29:28.204Z,1023.39
2018-01-30T10:30:28.222Z,1023.35
2018-01-30T10:31:28.239Z,1023.38
2018-01-30T10:32:28.335Z,1023.36
2018-01-30T10:33:28.273Z,1023.39
2018-01-30T10:34:28.291Z,1023.36
2018-01-30T10:35:28.309Z,1023.34
2018-01-30T10:36:28.326Z,1023.29
2018-01-30T10:37:28.392Z,1023.36
2018-01-30T10:38:28.361Z,1023.38
2018-01-30T10:39:28.379Z,1023.42
2018-01-30T10:40:28.396Z,1023.44
2018-01-30T10:41:28.414Z,1023.43
2018-01-30T10:42:28.431Z,1023.34
2018-01-30T10:43:28.448Z,1023.32
2018-01-30T10:44:28.468Z,1023.28
2018-01-30T10:45:28.632Z,1023.31
2018-01-30T10:46:28.500Z,1023.39
2018-01-30T10:47:28.518Z,1023.40
2018-01-30T10:48:28.536Z,1023.41
2018-01-30T10:49:28.552Z,1023.40
2018-01-30T10:50:28.606Z,1023.32
2018-01-30T10:51:28.588Z,1023.32
2018-01-30T10:52:28.605Z,1023.34
2018-01-30T10:53:28.625Z,1023.37
2018-01-30T10:54:28.641Z,1023.38
2018-01-30T10:55:28.658Z,1023.36
2018-01-30T10:56:28.701Z,1023.39
2018-01-30T10:57:28.692Z,1023.39
2018-01-30T10:58:28.710Z,1023.35
2018-01-30T10:59:28.727Z,1023.33
2018-01-30T11:00:28.804Z,1023.29
2018-01-30T11:01:28.765Z,1023.38
2018-01-30T11:02:28.827Z,1023.37
2018-01-30T11:03:28.799Z,1023.36
2018-01-30T11:04:28.815Z,1023.36
2018-01-30T11:05:28.835Z,1023.24
2018-01-30T11:06:28.861Z,1023.23
2018-01-30T11:07:28.871Z,1023.15
2018-01-30T11:08:28.886Z,1023.19
2018-01-30T11:09:28.905Z,1023.21
2018-01-30T11:10:28.921Z,1023.24
2018-01-30T11:11:28.989Z,1023.25
2018-01-30T11:12:28.956Z,1023.17
2018-01-30T11:13:28.973Z,1023.19
2018-01-30T11:14:28.990Z,1023.21
2018-01-30T11:15:29.010Z,1023.27
2018-01-30T11:16:29.028Z,1023.30
2018-01-30T11:17:29.043Z,1023.26
2018-01-30T11:18:29.061Z,1023.25
2018-01-30T11:19:29.084Z,1023.28
2018-01-30T11:20:29.097Z,1023.17
2018-01-30T11:21:29.114Z,1023.20
2018-01-30T11:22:29.282Z,1023.14
2018-01-30T11:23:29.149Z,1023.18
2018-01-30T11:24:29.167Z,1023.12
2018-01-30T11:25:29.184Z,1023.20
2018-01-30T11:26:29.201Z,1023.12
2018-01-30T11:27:29.218Z,1023.18
2018-01-30T11:28:29.237Z,1023.14
2018-01-30T11:29:29.253Z,1023.17
2018-01-30T11:30:29.271Z,1023.20
2018-01-30T11:31:29.295Z,1023.17
2018-01-30T11:32:29.319Z,1023.11
2018-01-30T11:33:29.323Z,1023.12
2018-01-30T11:34:29.343Z,1023.06
2018-01-30T11:35:29.358Z,1023.07
2018-01-30T11:36:29.376Z,1023.12
2018-01-30T11:37:29.395Z,1023.10
2018-01-30T11:38:29.410Z,1023.09
2018-01-30T11:39:29.428Z,1023.15
2018-01-30T11:40:29.446Z,1023.11
2018-01-30T11:41:29.468Z,1023.14
2018-01-30T11:42:29.487Z,1023.08
2018-01-30T11:43:29.506Z,1023.12
2018-01-30T11:44:29.516Z,1023.07
2018-01-30T11:45:29.533Z,1023.09
2018-01-30T11:46:29.550Z,1023.10
2018-01-30T11:47:29.720Z,1023.04
2018-01-30T11:48:29.586Z,1023.00
2018-01-30T11:49:29.639Z,1023.01
2018-01-30T11:50:29.621Z,1023.00
2018-01-30T11:51:29.639Z,1023.05
2018-01-30T11:52:29.663Z,1023.02
2018-01-30T11:53:29.680Z,1023.01
2018-01-30T11:54:29.692Z,1023.04
2018-01-30T11:55:29.734Z,1022.99
2018-01-30T11:56:29.727Z,1022.96
2018-01-30T11:57:29.743Z,1022.95
2018-01-30T11:58:29.761Z,1022.96
2018-01-30T11:59:29.779Z,1023.00
2018-01-30T12:00:29.798Z,1022.86
2018-01-30T12:01:29.814Z,1022.92
2018-01-30T12:02:29.831Z,1022.88
2018-01-30T12:03:29.849Z,1022.83
2018-01-30T12:04:29.867Z,1022.85
2018-01-30T12:05:29.884Z,1022.80